createdAt,value
2023-05-09T00:00:38.235Z,9.68
2023-05-09T00:03:07.987Z,9.62
2023-05-09T00:05:36.363Z,9.58
2023-05-09T00:08:04.575Z,9.54
2023-05-09T00:10:33.248Z,9.52
2023-05-09T00:13:02.751Z,9.51
2023-05-09T00:15:32.953Z,9.47
2023-05-09T00:18:03.521Z,9.44
2023-05-09T00:20:34.449Z,9.41
2023-05-09T00:23:03.215Z,9.40
2023-05-09T00:25:32.376Z,9.37
2023-05-09T00:28:01.421Z,9.34
2023-05-09T00:30:29.604Z,9.31
2023-05-09T00:33:01.582Z,9.33
2023-05-09T00:35:31.347Z,9.31
2023-05-09T00:38:00.115Z,9.31
2023-05-09T00:40:28.283Z,9.31
2023-05-09T00:42:58.714Z,9.31
2023-05-09T00:45:27.724Z,9.30
2023-05-09T00:47:57.436Z,9.30
2023-05-09T00:50:28.636Z,9.33
2023-05-09T00:52:58.382Z,9.29
2023-05-09T00:55:29.111Z,9.26
2023-05-09T00:57:57.393Z,9.29
2023-05-09T01:00:25.914Z,9.23
2023-05-09T01:02:55.999Z,9.24
2023-05-09T01:05:29.729Z,9.22
2023-05-09T01:08:06.821Z,9.19
2023-05-09T01:10:41.399Z,9.15
2023-05-09T01:13:16.850Z,9.13
2023-05-09T01:15:48.338Z,9.10
2023-05-09T01:18:19.405Z,9.08
2023-05-09T01:20:54.880Z,9.06
2023-05-09T01:23:47.412Z,9.12
2023-05-09T01:26:24.372Z,9.10
2023-05-09T01:29:12.275Z,9.10
2023-05-09T01:31:42.873Z,9.09
2023-05-09T01:34:12.795Z,9.08
2023-05-09T01:36:42.149Z,9.05
2023-05-09T01:39:13.880Z,9.02
2023-05-09T01:41:42.598Z,9.00
2023-05-09T01:44:13.156Z,8.96
2023-05-09T01:46:42.074Z,8.95
2023-05-09T01:49:12.024Z,8.90
2023-05-09T01:51:43.916Z,8.90
2023-05-09T01:54:12.973Z,8.88
2023-05-09T01:56:43.428Z,8.88
2023-05-09T01:59:16.158Z,8.85
2023-05-09T02:01:44.877Z,8.82
2023-05-09T02:04:16.210Z,8.81
2023-05-09T02:06:44.783Z,8.78
2023-05-09T02:09:13.984Z,8.81
2023-05-09T02:11:42.673Z,8.75
2023-05-09T02:14:11.436Z,8.75
2023-05-09T02:16:42.194Z,8.72
2023-05-09T02:19:10.982Z,8.71
2023-05-09T02:21:42.103Z,8.72
2023-05-09T02:24:10.407Z,8.67
2023-05-09T02:26:40.748Z,8.65
2023-05-09T02:29:09.332Z,8.60
2023-05-09T02:31:38.357Z,8.55
2023-05-09T02:34:13.039Z,8.54
2023-05-09T02:36:43.583Z,8.48
2023-05-09T02:39:12.851Z,8.48
2023-05-09T02:41:42.063Z,8.51
2023-05-09T02:44:10.143Z,8.42
2023-05-09T02:46:43.987Z,8.41
2023-05-09T02:49:26.851Z,8.38
2023-05-09T02:52:00.048Z,8.33
2023-05-09T02:54:28.531Z,8.31
2023-05-09T02:56:57.432Z,8.26
2023-05-09T02:59:27.486Z,8.27
2023-05-09T03:01:55.897Z,8.40
2023-05-09T03:04:26.354Z,8.48
2023-05-09T03:06:55.527Z,8.45
2023-05-09T03:09:23.779Z,8.41
2023-05-09T03:11:52.178Z,8.37
2023-05-09T03:14:21.985Z,8.36
2023-05-09T03:16:54.404Z,8.29
2023-05-09T03:19:22.425Z,8.27
2023-05-09T03:21:55.259Z,8.29
2023-05-09T03:24:24.139Z,8.20
2023-05-09T03:26:53.258Z,8.19
2023-05-09T03:29:22.230Z,8.24
2023-05-09T03:31:52.086Z,8.17
2023-05-09T03:34:20.309Z,8.17
2023-05-09T03:36:48.414Z,8.14
2023-05-09T03:39:18.110Z,8.06
2023-05-09T03:41:46.788Z,7.97
2023-05-09T03:44:16.964Z,7.92
2023-05-09T03:46:57.499Z,7.97
2023-05-09T03:49:25.642Z,8.09
2023-05-09T03:51:58.038Z,8.29
2023-05-09T03:54:29.701Z,8.41
2023-05-09T03:56:59.099Z,8.54
2023-05-09T03:59:27.715Z,8.64
2023-05-09T04:01:58.625Z,8.75
2023-05-09T04:04:27.758Z,8.86
2023-05-09T04:06:56.594Z,9.02
2023-05-09T04:09:26.260Z,9.18
2023-05-09T04:11:56.262Z,9.30
2023-05-09T04:14:26.277Z,9.47
2023-05-09T04:16:55.226Z,9.71
2023-05-09T04:19:23.657Z,9.79
2023-05-09T04:21:53.589Z,9.98
2023-05-09T04:24:22.243Z,10.19
2023-05-09T04:26:59.076Z,10.45
2023-05-09T04:29:29.082Z,10.73
2023-05-09T04:31:58.516Z,10.84
2023-05-09T04:34:27.775Z,10.98
2023-05-09T04:36:57.252Z,11.14
2023-05-09T04:39:25.762Z,11.42
2023-05-09T04:41:57.089Z,11.70
2023-05-09T04:44:25.352Z,11.82
2023-05-09T04:46:55.239Z,12.05
2023-05-09T04:49:24.147Z,12.01
2023-05-09T04:51:52.288Z,11.80
2023-05-09T04:54:22.375Z,11.90
2023-05-09T04:56:50.763Z,12.17
2023-05-09T04:59:19.509Z,12.41
2023-05-09T05:01:52.071Z,12.44
2023-05-09T05:04:22.373Z,12.55
2023-05-09T05:06:51.605Z,12.46
2023-05-09T05:09:21.182Z,12.65
2023-05-09T05:12:01.790Z,12.83
2023-05-09T05:14:36.015Z,12.80
2023-05-09T05:17:04.571Z,12.86
2023-05-09T05:19:34.661Z,12.93
2023-05-09T05:22:02.892Z,12.99
2023-05-09T05:24:31.450Z,12.89
2023-05-09T05:27:00.138Z,12.89
2023-05-09T05:29:28.493Z,13.04
2023-05-09T05:31:58.814Z,13.10
2023-05-09T05:34:28.192Z,13.40
2023-05-09T05:36:58.000Z,13.40
2023-05-09T05:39:26.855Z,13.58
2023-05-09T05:41:56.533Z,13.62
2023-05-09T05:44:30.548Z,13.65
2023-05-09T05:46:58.788Z,13.79
2023-05-09T05:49:28.927Z,14.03
2023-05-09T05:52:00.725Z,14.00
2023-05-09T05:54:32.306Z,13.89
2023-05-09T05:57:00.564Z,13.99
2023-05-09T05:59:30.856Z,13.81
2023-05-09T06:02:00.481Z,13.52
2023-05-09T06:04:29.456Z,13.88
2023-05-09T06:07:00.049Z,14.30
2023-05-09T06:09:28.438Z,14.67
2023-05-09T06:11:57.429Z,14.74
2023-05-09T06:14:26.183Z,14.95
2023-05-09T06:16:54.736Z,15.27
2023-05-09T06:19:23.028Z,15.25
2023-05-09T06:21:52.320Z,15.07
2023-05-09T06:24:34.425Z,15.32
2023-05-09T06:27:03.908Z,15.12
2023-05-09T06:29:31.924Z,15.20
2023-05-09T06:32:00.347Z,15.51
2023-05-09T06:34:29.212Z,15.88
2023-05-09T06:36:57.560Z,16.04
2023-05-09T06:39:28.116Z,15.70
2023-05-09T06:41:59.572Z,15.58
2023-05-09T06:44:30.625Z,15.71
2023-05-09T06:47:07.206Z,15.84
2023-05-09T06:49:35.974Z,15.77
2023-05-09T06:52:05.198Z,15.82
2023-05-09T06:54:37.741Z,15.77
2023-05-09T06:57:07.293Z,16.14
2023-05-09T06:59:35.872Z,16.32
2023-05-09T07:02:04.457Z,16.21
2023-05-09T07:04:35.081Z,16.08
2023-05-09T07:07:03.789Z,16.25
2023-05-09T07:09:32.462Z,16.30
2023-05-09T07:12:03.061Z,16.53
2023-05-09T07:14:31.942Z,16.35
2023-05-09T07:17:21.781Z,16.16
2023-05-09T07:19:52.300Z,15.79
2023-05-09T07:22:22.500Z,15.92
2023-05-09T07:24:52.734Z,16.29
2023-05-09T07:27:22.913Z,16.52
2023-05-09T07:29:53.503Z,16.42
2023-05-09T07:32:22.341Z,16.28
2023-05-09T07:34:52.634Z,16.53
2023-05-09T07:37:21.233Z,16.74
2023-05-09T07:39:49.927Z,16.66
2023-05-09T07:42:18.111Z,16.94
2023-05-09T07:44:48.739Z,17.36
2023-05-09T07:47:16.768Z,17.45
2023-05-09T07:49:46.852Z,17.16
2023-05-09T07:52:14.936Z,16.85
2023-05-09T07:54:43.039Z,16.52
2023-05-09T07:57:11.529Z,17.08
2023-05-09T07:59:42.361Z,17.36
2023-05-09T08:02:12.216Z,16.52
2023-05-09T08:04:41.293Z,16.39
2023-05-09T08:07:11.959Z,16.64
2023-05-09T08:09:40.256Z,17.00
2023-05-09T08:12:10.290Z,16.91
2023-05-09T08:14:38.952Z,16.80
2023-05-09T08:17:07.172Z,16.94
2023-05-09T08:19:36.949Z,17.18
2023-05-09T08:22:07.167Z,17.14
2023-05-09T08:24:41.909Z,17.43
2023-05-09T08:27:10.600Z,18.16
2023-05-09T08:29:41.070Z,18.27
2023-05-09T08:32:10.953Z,18.20
2023-05-09T08:34:41.125Z,18.10
2023-05-09T08:37:09.558Z,17.91
2023-05-09T08:39:38.116Z,17.65
2023-05-09T08:42:10.013Z,17.80
2023-05-09T08:44:38.110Z,17.77
2023-05-09T08:47:06.490Z,17.72
2023-05-09T08:49:37.757Z,17.69
2023-05-09T08:52:07.977Z,17.84
2023-05-09T08:54:36.444Z,17.86
2023-05-09T08:57:04.891Z,17.74
2023-05-09T08:59:35.162Z,17.50
2023-05-09T09:02:07.605Z,17.34
2023-05-09T09:04:36.990Z,17.86
2023-05-09T09:07:09.783Z,18.27
2023-05-09T09:09:39.021Z,18.71
2023-05-09T09:12:09.698Z,18.72
2023-05-09T09:14:40.930Z,18.59
2023-05-09T09:17:12.678Z,18.31
2023-05-09T09:19:42.453Z,18.27
2023-05-09T09:22:15.486Z,18.35
2023-05-09T09:24:46.497Z,18.20
2023-05-09T09:27:17.462Z,18.04
2023-05-09T09:29:46.242Z,17.73
2023-05-09T09:32:15.317Z,17.69
2023-05-09T09:34:51.033Z,17.94
2023-05-09T09:37:27.490Z,18.44
2023-05-09T09:39:56.440Z,18.22
2023-05-09T09:42:24.840Z,18.10
2023-05-09T09:44:57.885Z,17.99
2023-05-09T09:47:32.896Z,18.27
2023-05-09T09:50:11.142Z,18.89
2023-05-09T09:52:43.287Z,18.49
2023-05-09T09:55:16.822Z,18.24
2023-05-09T09:57:48.684Z,18.49
2023-05-09T10:00:18.707Z,18.32
2023-05-09T10:02:52.441Z,18.08
2023-05-09T10:05:22.726Z,18.28
2023-05-09T10:07:55.506Z,18.75
2023-05-09T10:10:24.413Z,18.80
2023-05-09T10:12:56.086Z,18.34
2023-05-09T10:15:25.152Z,18.28
2023-05-09T10:17:56.489Z,18.41
2023-05-09T10:20:27.749Z,19.06
2023-05-09T10:23:00.167Z,18.64
2023-05-09T10:25:30.449Z,18.56
2023-05-09T10:28:01.233Z,18.79
2023-05-09T10:30:34.067Z,19.10
2023-05-09T10:33:06.347Z,19.48
2023-05-09T10:35:37.872Z,19.79
2023-05-09T10:38:12.537Z,19.75
2023-05-09T10:40:42.731Z,19.98
2023-05-09T10:43:13.271Z,19.98
2023-05-09T10:45:44.695Z,19.76
2023-05-09T10:48:13.658Z,19.72
2023-05-09T10:50:42.646Z,19.72
2023-05-09T10:53:16.955Z,19.55
2023-05-09T10:55:54.092Z,19.62
2023-05-09T10:58:26.814Z,19.64
2023-05-09T11:00:57.539Z,19.62
2023-05-09T11:03:27.206Z,19.59
2023-05-09T11:05:56.974Z,19.82
2023-05-09T11:08:28.991Z,19.54
2023-05-09T11:11:01.275Z,19.27
2023-05-09T11:13:33.370Z,19.55
2023-05-09T11:16:19.742Z,19.41
2023-05-09T11:18:55.122Z,19.18
2023-05-09T11:21:23.513Z,19.02
2023-05-09T11:23:55.283Z,18.76
2023-05-09T11:26:24.651Z,19.00
2023-05-09T11:28:57.074Z,19.06
2023-05-09T11:31:26.465Z,19.16
2023-05-09T11:34:05.007Z,19.14
2023-05-09T11:36:35.599Z,19.38
2023-05-09T11:39:07.714Z,19.58
2023-05-09T11:41:41.143Z,19.62
2023-05-09T11:44:15.337Z,19.78
2023-05-09T11:46:46.595Z,19.75
2023-05-09T11:49:15.346Z,19.61
2023-05-09T11:51:44.047Z,19.54
2023-05-09T11:54:15.199Z,19.45
2023-05-09T11:56:45.333Z,19.36
2023-05-09T11:59:16.242Z,19.61
2023-05-09T12:01:44.765Z,19.61
2023-05-09T12:04:13.103Z,19.51
2023-05-09T12:06:43.275Z,19.33
2023-05-09T12:09:16.210Z,19.07
2023-05-09T12:11:50.063Z,18.73
2023-05-09T12:14:29.798Z,18.65
2023-05-09T12:16:59.136Z,18.73
2023-05-09T12:19:32.273Z,18.75
2023-05-09T12:22:01.599Z,18.75
2023-05-09T12:24:31.520Z,18.66
2023-05-09T12:27:01.133Z,18.71
2023-05-09T12:29:30.786Z,18.71
2023-05-09T12:32:00.165Z,18.64
2023-05-09T12:34:28.700Z,18.52
2023-05-09T12:37:00.828Z,18.56
2023-05-09T12:39:29.460Z,18.59
2023-05-09T12:42:01.854Z,18.64
2023-05-09T12:44:30.599Z,18.61
2023-05-09T12:47:00.483Z,18.53
2023-05-09T12:49:31.708Z,18.53
2023-05-09T12:52:04.459Z,18.66
2023-05-09T12:54:33.647Z,18.62
2023-05-09T12:57:06.014Z,18.55
2023-05-09T12:59:35.158Z,18.62
2023-05-09T13:02:04.018Z,18.68
2023-05-09T13:04:32.404Z,18.69
2023-05-09T13:07:01.096Z,18.75
2023-05-09T13:09:30.018Z,18.71
2023-05-09T13:11:58.219Z,18.59
2023-05-09T13:14:29.568Z,18.55
2023-05-09T13:16:58.270Z,18.55
2023-05-09T13:19:27.444Z,18.56
2023-05-09T13:21:56.113Z,18.68
2023-05-09T13:24:24.769Z,18.66
2023-05-09T13:26:54.049Z,18.68
2023-05-09T13:29:22.812Z,18.71
2023-05-09T13:31:52.324Z,18.68
2023-05-09T13:34:22.998Z,18.65
2023-05-09T13:36:51.500Z,18.58
2023-05-09T13:39:21.510Z,18.55
2023-05-09T13:41:52.861Z,18.59
2023-05-09T13:44:21.054Z,18.62
2023-05-09T13:46:49.786Z,18.64
2023-05-09T13:49:25.462Z,18.56
2023-05-09T13:51:53.738Z,18.53
2023-05-09T13:54:23.208Z,18.53
2023-05-09T13:56:51.949Z,18.59
2023-05-09T13:59:21.226Z,18.56
2023-05-09T14:01:50.198Z,18.59
2023-05-09T14:04:23.607Z,18.56
2023-05-09T14:06:52.185Z,18.62
2023-05-09T14:09:22.220Z,18.62
2023-05-09T14:11:51.593Z,18.73
2023-05-09T14:14:20.230Z,18.82
2023-05-09T14:16:49.577Z,18.78
2023-05-09T14:19:18.129Z,18.75
2023-05-09T14:21:49.052Z,18.85
2023-05-09T14:24:17.238Z,18.85
2023-05-09T14:26:45.376Z,18.78
2023-05-09T14:29:13.720Z,18.73
2023-05-09T14:31:43.150Z,18.76
2023-05-09T14:34:13.640Z,18.86
2023-05-09T14:36:48.835Z,18.99
2023-05-09T14:39:20.543Z,19.02
2023-05-09T14:41:50.105Z,18.97
2023-05-09T14:44:18.273Z,18.90
2023-05-09T14:46:47.150Z,18.89
2023-05-09T14:49:15.568Z,18.83
2023-05-09T14:51:44.732Z,18.89
2023-05-09T14:54:12.848Z,18.86
2023-05-09T14:56:42.833Z,18.83
2023-05-09T14:59:11.666Z,18.87
2023-05-09T15:01:40.087Z,18.89
2023-05-09T15:04:09.859Z,18.87
2023-05-09T15:06:38.267Z,18.89
2023-05-09T15:09:06.710Z,18.87
2023-05-09T15:11:46.662Z,18.86
2023-05-09T15:14:17.388Z,18.90
2023-05-09T15:16:46.012Z,18.92
2023-05-09T15:19:14.663Z,18.90
2023-05-09T15:21:43.357Z,18.85
2023-05-09T15:24:12.069Z,18.83
2023-05-09T15:26:40.220Z,18.83
2023-05-09T15:32:52.062Z,18.85
2023-05-09T15:35:52.254Z,18.83
2023-05-09T15:38:23.421Z,18.80
2023-05-09T15:41:48.193Z,18.85
2023-05-09T15:45:15.763Z,18.87
2023-05-09T15:47:35.653Z,18.92
2023-05-09T15:50:09.632Z,18.85
2023-05-09T15:52:42.346Z,18.83
2023-05-09T15:56:03.682Z,18.87
2023-05-09T15:58:32.114Z,18.85
2023-05-09T16:01:05.772Z,18.79
2023-05-09T16:07:36.286Z,18.69
2023-05-09T16:10:05.306Z,18.75
2023-05-09T16:12:33.670Z,18.69
2023-05-09T16:15:02.294Z,18.68
2023-05-09T16:17:32.778Z,18.69
2023-05-09T16:20:02.365Z,18.66
2023-05-09T16:22:30.981Z,18.62
2023-05-09T16:25:00.226Z,18.64
2023-05-09T16:27:30.964Z,18.61
2023-05-09T16:30:02.422Z,18.56
2023-05-09T16:32:32.278Z,18.55
2023-05-09T16:35:00.797Z,18.55
2023-05-09T16:37:31.381Z,18.53
2023-05-09T16:40:04.472Z,18.52
2023-05-09T16:42:33.056Z,18.52
2023-05-09T16:45:01.867Z,18.49
2023-05-09T16:47:29.946Z,18.47
2023-05-09T16:49:59.707Z,18.42
2023-05-09T16:52:28.326Z,18.41
2023-05-09T16:54:59.476Z,18.39
2023-05-09T16:57:28.412Z,18.39
2023-05-09T16:59:57.030Z,18.39
2023-05-09T17:02:26.477Z,18.38
2023-05-09T17:04:55.102Z,18.37
2023-05-09T17:07:24.592Z,18.32
2023-05-09T17:09:52.667Z,18.29
2023-05-09T17:12:23.435Z,18.25
2023-05-09T17:14:51.850Z,18.25
2023-05-09T17:17:22.293Z,18.24
2023-05-09T17:19:51.392Z,18.20
2023-05-09T17:22:21.281Z,18.16
2023-05-09T17:24:51.044Z,18.13
2023-05-09T17:27:19.603Z,18.06
2023-05-09T17:29:50.198Z,18.04
2023-05-09T17:32:18.809Z,17.99
2023-05-09T17:34:47.561Z,17.94
2023-05-09T17:37:17.245Z,17.90
2023-05-09T17:39:45.793Z,17.84
2023-05-09T17:42:15.533Z,17.81
2023-05-09T17:44:44.377Z,17.76
2023-05-09T17:47:14.565Z,17.70
2023-05-09T17:49:44.380Z,17.65
2023-05-09T17:52:13.246Z,17.60
2023-05-09T17:54:43.726Z,17.55
2023-05-09T17:57:13.330Z,17.52
2023-05-09T17:59:43.024Z,17.46
2023-05-09T18:02:11.813Z,17.41
2023-05-09T18:04:40.777Z,17.35
2023-05-09T18:07:10.328Z,17.29
2023-05-09T18:09:39.813Z,17.25
2023-05-09T18:12:09.876Z,17.19
2023-05-09T18:14:39.618Z,17.14
2023-05-09T18:17:09.910Z,17.05
2023-05-09T18:19:41.129Z,17.00
2023-05-09T18:22:09.336Z,16.92
2023-05-09T18:24:37.900Z,16.87
2023-05-09T18:27:05.974Z,16.81
2023-05-09T18:29:35.471Z,16.81
2023-05-09T18:32:03.939Z,16.77
2023-05-09T18:34:36.336Z,16.70
2023-05-09T18:37:06.454Z,16.66
2023-05-09T18:39:34.805Z,16.60
2023-05-09T18:42:03.258Z,16.59
2023-05-09T18:44:31.328Z,16.53
2023-05-09T18:47:00.041Z,16.46
2023-05-09T18:49:28.454Z,16.43
2023-05-09T18:52:00.267Z,16.35
2023-05-09T18:54:28.983Z,16.28
2023-05-09T18:56:59.803Z,16.23
2023-05-09T18:59:28.188Z,16.21
2023-05-09T19:02:01.456Z,16.16
2023-05-09T19:04:30.253Z,16.09
2023-05-09T19:07:00.930Z,16.02
2023-05-09T19:09:30.841Z,15.98
2023-05-09T19:12:04.679Z,15.94
2023-05-09T19:14:33.276Z,15.85
2023-05-09T19:17:01.992Z,15.77
2023-05-09T19:19:30.186Z,15.75
2023-05-09T19:22:01.981Z,15.68
2023-05-09T19:24:33.092Z,15.60
2023-05-09T19:27:01.936Z,15.54
2023-05-09T19:29:30.268Z,15.50
2023-05-09T19:31:58.869Z,15.47
2023-05-09T19:34:27.661Z,15.40
2023-05-09T19:36:57.930Z,15.33
2023-05-09T19:39:29.126Z,15.30
2023-05-09T19:41:59.707Z,15.26
2023-05-09T19:44:28.785Z,15.22
2023-05-09T19:46:58.573Z,15.20
2023-05-09T19:49:27.223Z,15.12
2023-05-09T19:51:55.644Z,15.07
2023-05-09T19:54:28.233Z,15.00
2023-05-09T19:56:58.678Z,15.00
2023-05-09T19:59:27.003Z,14.95
2023-05-09T20:01:55.488Z,14.92
2023-05-09T20:04:24.609Z,14.91
2023-05-09T20:06:53.405Z,14.86
2023-05-09T20:09:21.950Z,14.81
2023-05-09T20:11:50.715Z,14.77
2023-05-09T20:14:20.314Z,14.74
2023-05-09T20:16:50.316Z,14.69
2023-05-09T20:19:18.423Z,14.68
2023-05-09T20:21:47.527Z,14.67
2023-05-09T20:24:16.177Z,14.61
2023-05-09T20:26:44.825Z,14.58
2023-05-09T20:29:13.124Z,14.53
2023-05-09T20:31:43.232Z,14.51
2023-05-09T20:34:16.020Z,14.47
2023-05-09T20:36:44.688Z,14.47
2023-05-09T20:39:13.414Z,14.36
2023-05-09T20:41:41.535Z,14.28
2023-05-09T20:44:09.793Z,14.26
2023-05-09T20:46:38.385Z,14.17
2023-05-09T20:49:08.138Z,14.17
2023-05-09T20:51:36.589Z,14.13
2023-05-09T20:54:05.163Z,14.16
2023-05-09T20:56:35.570Z,14.09
2023-05-09T20:59:04.399Z,14.03
2023-05-09T21:01:36.775Z,14.02
2023-05-09T21:04:05.905Z,13.95
2023-05-09T21:06:37.257Z,13.93
2023-05-09T21:09:08.912Z,13.89
2023-05-09T21:11:38.650Z,13.86
2023-05-09T21:14:06.995Z,13.82
2023-05-09T21:16:35.205Z,13.81
2023-05-09T21:19:05.742Z,13.81
2023-05-09T21:21:35.881Z,13.73
2023-05-09T21:24:09.171Z,13.65
2023-05-09T21:26:38.665Z,13.62
2023-05-09T21:29:07.657Z,13.61
2023-05-09T21:31:37.017Z,13.57
2023-05-09T21:34:17.250Z,13.57
2023-05-09T21:36:46.918Z,13.54
2023-05-09T21:39:15.574Z,13.49
2023-05-09T21:41:44.595Z,13.41
2023-05-09T21:44:13.872Z,13.40
2023-05-09T21:46:46.127Z,13.38
2023-05-09T21:49:18.662Z,13.37
2023-05-09T21:51:48.490Z,13.35
2023-05-09T21:54:18.293Z,13.34
2023-05-09T21:56:51.438Z,13.30
2023-05-09T21:59:20.879Z,13.28
2023-05-09T22:01:48.936Z,13.27
2023-05-09T22:04:17.240Z,13.27
2023-05-09T22:06:46.004Z,13.21
2023-05-09T22:09:18.218Z,13.19
2023-05-09T22:11:47.566Z,13.20
2023-05-09T22:14:20.277Z,13.17
2023-05-09T22:16:48.433Z,13.14
2023-05-09T22:19:22.305Z,13.13
2023-05-09T22:21:53.434Z,13.14
2023-05-09T22:24:25.943Z,13.13
2023-05-09T22:26:54.135Z,13.08
2023-05-09T22:29:22.559Z,13.07
2023-05-09T22:31:50.756Z,13.04
2023-05-09T22:34:18.770Z,13.01
2023-05-09T22:36:47.301Z,12.99
2023-05-09T22:39:15.859Z,12.93
2023-05-09T22:41:46.305Z,12.89
2023-05-09T22:44:15.652Z,12.87
2023-05-09T22:46:43.820Z,12.86
2023-05-09T22:49:12.117Z,12.82
2023-05-09T22:51:40.603Z,12.80
2023-05-09T22:54:09.124Z,12.77
2023-05-09T22:56:37.925Z,12.73
2023-05-09T22:59:07.724Z,12.63
2023-05-09T23:01:36.071Z,12.63
2023-05-09T23:04:08.424Z,12.61
2023-05-09T23:06:36.782Z,12.58
2023-05-09T23:09:07.029Z,12.52
2023-05-09T23:11:35.534Z,12.49
2023-05-09T23:14:04.880Z,12.49
2023-05-09T23:16:36.852Z,12.44
2023-05-09T23:19:05.195Z,12.44
2023-05-09T23:21:33.976Z,12.45
2023-05-09T23:24:02.136Z,12.39
2023-05-09T23:26:30.338Z,12.36
2023-05-09T23:28:58.646Z,12.35
2023-05-09T23:31:27.329Z,12.36
2023-05-09T23:33:56.966Z,12.28
2023-05-09T23:36:27.435Z,12.29
2023-05-09T23:38:57.746Z,12.26
2023-05-09T23:41:27.611Z,12.22
2023-05-09T23:43:57.960Z,12.17
2023-05-09T23:46:26.255Z,12.14
2023-05-09T23:48:57.223Z,12.12
2023-05-09T23:51:25.734Z,12.11
2023-05-09T23:53:54.075Z,12.07
2023-05-09T23:56:22.841Z,12.01
2023-05-09T23:58:51.118Z,12.01
